Time;durP1;ratioP1;P1;durP2;ratioP2;P2;SDS_P1;SDS_P2;PMS_P1;PMS_P2;Temp;Humidity;BMP_temperature;BMP_pressure;BME280_temperature;BME280_humidity;BME280_pressure;Samples;Min_cycle;Max_cycle;Signal;HPM_P1;HPM_P2
2022/09/06 00:01:30;;;;;;;;;;;;;;;;;;6273334;22;19911;-72
2022/09/06 00:03:56;;;;;;;;;;;;;;;;;;6245620;22;19911;-73
2022/09/06 00:06:22;;;;;;;;;;;;;;;;;;6273006;22;19919;-72
2022/09/06 00:08:47;;;;;;;;;;;;;;;;;;6272490;22;19923;-71
2022/09/06 00:11:13;;;;;;;;;;;;;;;;;;6272974;22;19915;-73
2022/09/06 00:13:39;;;;;;;;;;;;;;;;;;6272607;22;20014;-73
2022/09/06 00:16:05;;;;;;;;;;;;;;;;;;6272646;22;19918;-72
2022/09/06 00:18:30;;;;;;;;;;;;;;;;;;6245863;22;19911;-73
2022/09/06 00:20:56;;;;;;;;;;;;;;;;;;6245485;22;19994;-74
2022/09/06 00:23:21;;;;;;;;;;;;;;;;;;6245865;22;19911;-73
2022/09/06 00:25:47;;;;;;;;;;;;;;;;;;6272537;22;19911;-71
2022/09/06 00:28:14;;;;;;;;;;;;;;;;;;6271212;22;19919;-72
2022/09/06 00:30:40;;;;;;;;;;;;;;;;;;6272351;22;20297;-73
2022/09/06 00:33:05;;;;;;;;;;;;;;;;;;6272734;22;19990;-73
2022/09/06 00:35:31;;;;;;;;;;;;;;;;;;6273090;22;19950;-74
2022/09/06 00:37:57;;;;;;;;;;;;;;;;;;6272696;22;20318;-72
2022/09/06 00:40:22;;;;;;;;;;;;;;;;;;6272836;22;20260;-70
2022/09/06 00:42:48;;;;;;;;;;;;;;;;;;6272698;22;20189;-72
2022/09/06 00:45:13;;;;;;;;;;;;;;;;;;6272709;22;19919;-74
2022/09/06 00:47:39;;;;;;;;;;;;;;;;;;6273201;22;19911;-72
2022/09/06 00:50:05;;;;;;;;;;;;;;;;;;6246248;22;19911;-73
2022/09/06 00:52:30;;;;;;;;;;;;;;;;;;6274190;22;19911;-72
2022/09/06 00:54:56;;;;;;;;;;;;;;;;;;6272819;22;19919;-73
2022/09/06 00:57:25;;;;;;;;;;;;;;;;;;6245862;22;19957;-73
2022/09/06 00:59:51;;;;;;;;;;;;;;;;;;6272144;22;20259;-72
2022/09/06 01:02:17;;;;;;;;;;;;;;;;;;6245901;22;19911;-75
2022/09/06 01:04:42;;;;;;;;;;;;;;;;;;6272512;22;20390;-73
2022/09/06 01:07:08;;;;;;;;;;;;;;;;;;6272664;22;19911;-74
2022/09/06 01:09:33;;;;;;;;;;;;;;;;;;6220469;22;20351;-73
2022/09/06 01:11:59;;;;;;;;;;;;;;;;;;6272512;22;19911;-72
2022/09/06 01:14:24;;;;;;;;;;;;;;;;;;6244755;22;20716;-75
2022/09/06 01:16:50;;;;;;;;;;;;;;;;;;6272360;22;19917;-74
2022/09/06 01:19:15;;;;;;;;;;;;;;;;;;6272593;22;19907;-74
2022/09/06 01:21:41;;;;;;;;;;;;;;;;;;6272903;22;19912;-73
2022/09/06 01:24:07;;;;;;;;;;;;;;;;;;6277204;22;19933;-74
2022/09/06 01:26:32;;;;;;;;;;;;;;;;;;6272832;22;19953;-73
2022/09/06 01:28:58;;;;;;;;;;;;;;;;;;6272115;22;19981;-73
2022/09/06 01:31:23;;;;;;;;;;;;;;;;;;6247121;22;20351;-73
2022/09/06 01:33:49;;;;;;;;;;;;;;;;;;6274147;22;20002;-73
2022/09/06 01:36:15;;;;;;;;;;;;;;;;;;6247424;22;19911;-74
2022/09/06 01:38:40;;;;;;;;;;;;;;;;;;6274562;22;19912;-73
2022/09/06 01:41:06;;;;;;;;;;;;;;;;;;6274270;22;20421;-72
2022/09/06 01:43:32;;;;;;;;;;;;;;;;;;6274397;22;19946;-73
2022/09/06 01:45:57;;;;;;;;;;;;;;;;;;6273733;22;19990;-72
2022/09/06 01:48:23;;;;;;;;;;;;;;;;;;6274447;22;19915;-73
2022/09/06 01:50:48;;;;;;;;;;;;;;;;;;6273864;22;19918;-73
2022/09/06 01:53:14;;;;;;;;;;;;;;;;;;6274226;22;19990;-72
2022/09/06 01:55:39;;;;;;;;;;;;;;;;;;6274109;22;20366;-73
2022/09/06 01:58:05;;;;;;;;;;;;;;;;;;6273904;22;19912;-73
2022/09/06 02:00:31;;;;;;;;;;;;;;;;;;6274226;22;19925;-73
2022/09/06 02:02:57;;;;;;;;;;;;;;;;;;6273944;22;20302;-73
2022/09/06 02:05:22;;;;;;;;;;;;;;;;;;6273959;22;19938;-72
2022/09/06 02:07:48;;;;;;;;;;;;;;;;;;6273858;22;19934;-71
2022/09/06 02:10:13;;;;;;;;;;;;;;;;;;6273842;22;19915;-72
2022/09/06 02:12:39;;;;;;;;;;;;;;;;;;6274140;22;20292;-73
2022/09/06 02:15:05;;;;;;;;;;;;;;;;;;6273603;22;19965;-72
2022/09/06 02:17:30;;;;;;;;;;;;;;;;;;6274401;22;20298;-72
2022/09/06 02:19:56;;;;;;;;;;;;;;;;;;6274289;22;19994;-73
2022/09/06 02:22:21;;;;;;;;;;;;;;;;;;6280284;22;19918;-74
2022/09/06 02:24:47;;;;;;;;;;;;;;;;;;6283596;22;20339;-73
2022/09/06 02:27:13;;;;;;;;;;;;;;;;;;6282031;22;20044;-74
2022/09/06 02:29:39;;;;;;;;;;;;;;;;;;6250556;22;19919;-72
2022/09/06 02:32:05;;;;;;;;;;;;;;;;;;6274155;22;20002;-73
2022/09/06 02:34:30;;;;;;;;;;;;;;;;;;6273753;22;19919;-73
2022/09/06 02:36:56;;;;;;;;;;;;;;;;;;6273547;22;19911;-73
2022/09/06 02:39:22;;;;;;;;;;;;;;;;;;6221264;22;19943;-72
2022/09/06 02:41:47;;;;;;;;;;;;;;;;;;6273406;22;19961;-74
2022/09/06 02:44:13;;;;;;;;;;;;;;;;;;6273643;22;19921;-73
2022/09/06 02:46:38;;;;;;;;;;;;;;;;;;6273775;22;19915;-74
2022/09/06 02:49:04;;;;;;;;;;;;;;;;;;6273393;22;19919;-73
2022/09/06 02:51:30;;;;;;;;;;;;;;;;;;6273597;22;19911;-73
2022/09/06 02:53:55;;;;;;;;;;;;;;;;;;6246382;22;19919;-73
2022/09/06 02:56:21;;;;;;;;;;;;;;;;;;6273733;22;20365;-73
2022/09/06 02:58:47;;;;;;;;;;;;;;;;;;6273753;22;20373;-74
2022/09/06 03:01:12;;;;;;;;;;;;;;;;;;6273339;22;19962;-74
2022/09/06 03:03:38;;;;;;;;;;;;;;;;;;6272132;22;19915;-71
2022/09/06 03:06:04;;;;;;;;;;;;;;;;;;6273202;22;19915;-74
2022/09/06 03:08:32;;;;;;;;;;;;;;;;;;6273607;22;19912;-72
2022/09/06 03:10:57;;;;;;;;;;;;;;;;;;6273211;22;19911;-73
2022/09/06 03:13:23;;;;;;;;;;;;;;;;;;6273843;22;19911;-73
2022/09/06 03:15:49;;;;;;;;;;;;;;;;;;6271746;22;20417;-74
2022/09/06 03:18:14;;;;;;;;;;;;;;;;;;6273961;22;19965;-72
2022/09/06 03:20:40;;;;;;;;;;;;;;;;;;6273651;22;20006;-74
2022/09/06 03:23:05;;;;;;;;;;;;;;;;;;6273464;22;19912;-73
2022/09/06 03:25:31;;;;;;;;;;;;;;;;;;6247524;22;19918;-74
2022/09/06 03:27:57;;;;;;;;;;;;;;;;;;6272737;22;19958;-73
2022/09/06 03:30:22;;;;;;;;;;;;;;;;;;6272810;22;19947;-73
2022/09/06 03:32:48;;;;;;;;;;;;;;;;;;6271572;22;19911;-74
2022/09/06 03:35:14;;;;;;;;;;;;;;;;;;6272398;22;19919;-75
2022/09/06 03:37:39;;;;;;;;;;;;;;;;;;6272524;22;19911;-73
2022/09/06 03:40:05;;;;;;;;;;;;;;;;;;6246010;22;19908;-73
2022/09/06 03:42:30;;;;;;;;;;;;;;;;;;6272980;22;19911;-74
2022/09/06 03:44:56;;;;;;;;;;;;;;;;;;6271061;22;19945;-73
2022/09/06 03:47:22;;;;;;;;;;;;;;;;;;6273121;22;19953;-74
2022/09/06 03:49:47;;;;;;;;;;;;;;;;;;6245464;22;19911;-74
2022/09/06 03:52:13;;;;;;;;;;;;;;;;;;6270921;22;19915;-74
2022/09/06 03:54:39;;;;;;;;;;;;;;;;;;6245901;22;19919;-73
2022/09/06 03:57:05;;;;;;;;;;;;;;;;;;6272783;22;19918;-75
2022/09/06 03:59:31;;;;;;;;;;;;;;;;;;6272988;22;19947;-74
2022/09/06 04:01:57;;;;;;;;;;;;;;;;;;6273040;22;19962;-75
2022/09/06 04:04:22;;;;;;;;;;;;;;;;;;6246152;22;19911;-75
2022/09/06 04:06:48;;;;;;;;;;;;;;;;;;6246125;22;20087;-74
2022/09/06 04:09:14;;;;;;;;;;;;;;;;;;6244938;22;19915;-74
2022/09/06 04:11:39;;;;;;;;;;;;;;;;;;6272737;22;19927;-74
2022/09/06 04:14:05;;;;;;;;;;;;;;;;;;6270651;22;19973;-75
2022/09/06 04:16:31;;;;;;;;;;;;;;;;;;6272454;22;19911;-75
2022/09/06 04:18:58;;;;;;;;;;;;;;;;;;6272134;22;19994;-74
2022/09/06 04:21:24;;;;;;;;;;;;;;;;;;6270675;22;19915;-74
2022/09/06 04:23:49;;;;;;;;;;;;;;;;;;6272667;22;19918;-75
2022/09/06 04:26:16;;;;;;;;;;;;;;;;;;6272349;22;19911;-73
2022/09/06 04:28:42;;;;;;;;;;;;;;;;;;6272541;22;20322;-74
2022/09/06 04:31:07;;;;;;;;;;;;;;;;;;6272324;22;19938;-74
2022/09/06 04:33:33;;;;;;;;;;;;;;;;;;6270969;22;19977;-74
2022/09/06 04:35:58;;;;;;;;;;;;;;;;;;6272183;22;19919;-74
2022/09/06 04:38:24;;;;;;;;;;;;;;;;;;6272806;22;19922;-72
2022/09/06 04:40:50;;;;;;;;;;;;;;;;;;6272384;22;20314;-74
2022/09/06 04:43:15;;;;;;;;;;;;;;;;;;6272170;22;19925;-74
2022/09/06 04:45:41;;;;;;;;;;;;;;;;;;6272323;22;19911;-74
2022/09/06 04:48:06;;;;;;;;;;;;;;;;;;6272240;22;19915;-74
2022/09/06 04:50:32;;;;;;;;;;;;;;;;;;6271039;22;20443;-74
2022/09/06 04:53:03;;;;;;;;;;;;;;;;;;6245321;22;19921;-75
2022/09/06 04:55:30;;;;;;;;;;;;;;;;;;6273091;22;19955;-75
2022/09/06 04:57:57;;;;;;;;;;;;;;;;;;6270827;22;19934;-76
2022/09/06 05:00:22;;;;;;;;;;;;;;;;;;6272588;22;19986;-74
2022/09/06 05:02:48;;;;;;;;;;;;;;;;;;6272965;22;20472;-75
2022/09/06 05:05:14;;;;;;;;;;;;;;;;;;6274290;22;19922;-73
2022/09/06 05:07:39;;;;;;;;;;;;;;;;;;6276744;22;19918;-72
2022/09/06 05:10:05;;;;;;;;;;;;;;;;;;6249546;22;19911;-73
2022/09/06 05:12:39;;;;;;;;;;;;;;;;;;6275209;22;20330;-74
2022/09/06 05:15:06;;;;;;;;;;;;;;;;;;6274433;22;19926;-70
2022/09/06 05:17:32;;;;;;;;;;;;;;;;;;6274503;22;19912;-73
2022/09/06 05:19:57;;;;;;;;;;;;;;;;;;6269382;22;19941;-72
2022/09/06 05:22:23;;;;;;;;;;;;;;;;;;6273107;22;19945;-69
2022/09/06 05:24:48;;;;;;;;;;;;;;;;;;6271814;22;20336;-72
2022/09/06 05:27:14;;;;;;;;;;;;;;;;;;6272934;22;19915;-72
2022/09/06 05:29:40;;;;;;;;;;;;;;;;;;6245602;22;19972;-72
2022/09/06 05:32:05;;;;;;;;;;;;;;;;;;6220269;22;19911;-71
2022/09/06 05:34:31;;;;;;;;;;;;;;;;;;6245481;22;19919;-71
2022/09/06 05:36:56;;;;;;;;;;;;;;;;;;6271987;22;19930;-72
2022/09/06 05:39:22;;;;;;;;;;;;;;;;;;6272611;22;20264;-70
2022/09/06 05:41:48;;;;;;;;;;;;;;;;;;6273449;22;20268;-70
2022/09/06 05:44:13;;;;;;;;;;;;;;;;;;6272549;22;20447;-70
2022/09/06 05:46:39;;;;;;;;;;;;;;;;;;6245432;22;19918;-73
2022/09/06 05:49:06;;;;;;;;;;;;;;;;;;6272368;22;19946;-71
2022/09/06 05:51:32;;;;;;;;;;;;;;;;;;6245541;22;19918;-71
2022/09/06 05:53:57;;;;;;;;;;;;;;;;;;6272301;22;19915;-73
2022/09/06 05:56:23;;;;;;;;;;;;;;;;;;6272930;22;20314;-71
2022/09/06 05:58:49;;;;;;;;;;;;;;;;;;6272585;22;19918;-71
2022/09/06 06:01:14;;;;;;;;;;;;;;;;;;6272088;22;19917;-71
2022/09/06 06:03:40;;;;;;;;;;;;;;;;;;6272673;22;19912;-74
2022/09/06 06:06:06;;;;;;;;;;;;;;;;;;6272407;22;19911;-73
2022/09/06 06:08:31;;;;;;;;;;;;;;;;;;6272735;22;20378;-74
2022/09/06 06:10:57;;;;;;;;;;;;;;;;;;6271681;22;20347;-74
2022/09/06 06:13:23;;;;;;;;;;;;;;;;;;6245470;22;19911;-72
2022/09/06 06:15:48;;;;;;;;;;;;;;;;;;6244756;22;19915;-71
2022/09/06 06:18:14;;;;;;;;;;;;;;;;;;6244962;22;20108;-72
2022/09/06 06:20:39;;;;;;;;;;;;;;;;;;6272279;22;19917;-72
2022/09/06 06:23:05;;;;;;;;;;;;;;;;;;6272210;22;19911;-72
2022/09/06 06:25:30;;;;;;;;;;;;;;;;;;6244596;22;19934;-71
2022/09/06 06:27:56;;;;;;;;;;;;;;;;;;6272344;22;19931;-72
2022/09/06 06:30:22;;;;;;;;;;;;;;;;;;6241615;23;20280;-72
2022/09/06 06:32:47;;;;;;;;;;;;;;;;;;6242250;23;19912;-71
2022/09/06 06:35:13;;;;;;;;;;;;;;;;;;6242452;23;19930;-73
2022/09/06 06:37:39;;;;;;;;;;;;;;;;;;6242922;23;19911;-72
2022/09/06 06:40:04;;;;;;;;;;;;;;;;;;6215271;23;19981;-73
2022/09/06 06:42:30;;;;;;;;;;;;;;;;;;6241899;23;19912;-72
2022/09/06 06:44:56;;;;;;;;;;;;;;;;;;6240244;23;19912;-73
2022/09/06 06:47:21;;;;;;;;;;;;;;;;;;6241555;23;19911;-72
2022/09/06 06:49:47;;;;;;;;;;;;;;;;;;6241637;23;19918;-72
2022/09/06 06:52:13;;;;;;;;;;;;;;;;;;6240979;23;19923;-72
2022/09/06 06:54:40;;;;;;;;;;;;;;;;;;6239908;23;19923;-72
2022/09/06 06:57:08;;;;;;;;;;;;;;;;;;6241593;23;19986;-72
2022/09/06 06:59:33;;;;;;;;;;;;;;;;;;6240589;22;19947;-70
2022/09/06 07:01:59;;;;;;;;;;;;;;;;;;6240743;23;19912;-70
2022/09/06 07:04:24;;;;;;;;;;;;;;;;;;6240332;23;19911;-70
2022/09/06 07:06:50;;;;;;;;;;;;;;;;;;6241504;23;20454;-71
2022/09/06 07:09:16;;;;;;;;;;;;;;;;;;6241015;23;20415;-70
2022/09/06 07:11:42;;;;;;;;;;;;;;;;;;6241231;23;19981;-71
2022/09/06 07:14:08;;;;;;;;;;;;;;;;;;6240885;23;20400;-71
2022/09/06 07:16:33;;;;;;;;;;;;;;;;;;6241397;23;19916;-72
2022/09/06 07:18:59;;;;;;;;;;;;;;;;;;6241105;23;19911;-71
2022/09/06 07:21:25;;;;;;;;;;;;;;;;;;6240778;23;19912;-70
2022/09/06 07:23:51;;;;;;;;;;;;;;;;;;6241423;23;19918;-69
2022/09/06 07:26:17;;;;;;;;;;;;;;;;;;6241076;23;19998;-70
2022/09/06 07:28:42;;;;;;;;;;;;;;;;;;6251005;22;19919;-70
2022/09/06 07:31:08;;;;;;;;;;;;;;;;;;6271292;22;19911;-69
2022/09/06 07:33:33;;;;;;;;;;;;;;;;;;6270497;22;19916;-70
2022/09/06 07:35:59;;;;;;;;;;;;;;;;;;6269675;22;19919;-69
2022/09/06 07:38:25;;;;;;;;;;;;;;;;;;6271299;22;19937;-71
2022/09/06 07:40:50;;;;;;;;;;;;;;;;;;6271423;22;19911;-71
2022/09/06 07:43:16;;;;;;;;;;;;;;;;;;6244343;22;19919;-71
2022/09/06 07:45:41;;;;;;;;;;;;;;;;;;6271607;22;19918;-71
2022/09/06 07:48:07;;;;;;;;;;;;;;;;;;6271474;22;19918;-70
2022/09/06 07:50:33;;;;;;;;;;;;;;;;;;6271515;22;20256;-71
2022/09/06 07:52:58;;;;;;;;;;;;;;;;;;6271189;22;19967;-71
2022/09/06 07:55:24;;;;;;;;;;;;;;;;;;6271364;22;19927;-71
2022/09/06 07:57:50;;;;;;;;;;;;;;;;;;6272077;22;19915;-71
2022/09/06 08:00:16;;;;;;;;;;;;;;;;;;6271119;22;20430;-71
2022/09/06 08:02:41;;;;;;;;;;;;;;;;;;6271614;22;19999;-71
2022/09/06 08:05:07;;;;;;;;;;;;;;;;;;6271150;22;20348;-69
2022/09/06 08:07:32;;;;;;;;;;;;;;;;;;6271076;22;19915;-71
2022/09/06 08:09:58;;;;;;;;;;;;;;;;;;6244104;22;20259;-71
2022/09/06 08:12:26;;;;;;;;;;;;;;;;;;6269927;22;20241;-71
2022/09/06 08:14:52;;;;;;;;;;;;;;;;;;6269803;22;19997;-72
2022/09/06 08:17:17;;;;;;;;;;;;;;;;;;6271028;22;19915;-71
2022/09/06 08:19:43;;;;;;;;;;;;;;;;;;6271387;22;20237;-71
2022/09/06 08:22:09;;;;;;;;;;;;;;;;;;6243297;22;20340;-72
2022/09/06 08:24:34;;;;;;;;;;;;;;;;;;6271373;22;20001;-72
2022/09/06 08:27:00;;;;;;;;;;;;;;;;;;6270840;22;19911;-73
2022/09/06 08:29:26;;;;;;;;;;;;;;;;;;6271286;22;19919;-71
2022/09/06 08:31:51;;;;;;;;;;;;;;;;;;6244026;22;19969;-72
2022/09/06 08:34:17;;;;;;;;;;;;;;;;;;6270920;22;19923;-71
2022/09/06 08:36:44;;;;;;;;;;;;;;;;;;6271188;22;19921;-71
2022/09/06 08:39:09;;;;;;;;;;;;;;;;;;6272264;22;20367;-70
2022/09/06 08:41:35;;;;;;;;;;;;;;;;;;6273296;22;19990;-72
2022/09/06 08:44:01;;;;;;;;;;;;;;;;;;6273188;22;19911;-72
2022/09/06 08:46:27;;;;;;;;;;;;;;;;;;6273307;22;19989;-72
2022/09/06 08:48:52;;;;;;;;;;;;;;;;;;6273018;22;19938;-72
2022/09/06 08:51:18;;;;;;;;;;;;;;;;;;6219575;22;19980;-71
2022/09/06 08:53:45;;;;;;;;;;;;;;;;;;6272830;22;20065;-72
2022/09/06 08:56:12;;;;;;;;;;;;;;;;;;6272604;22;19919;-72
2022/09/06 08:58:37;;;;;;;;;;;;;;;;;;6246024;22;19911;-71
2022/09/06 09:01:03;;;;;;;;;;;;;;;;;;6271991;22;20359;-71
2022/09/06 09:03:29;;;;;;;;;;;;;;;;;;6245819;22;19912;-72
2022/09/06 09:05:54;;;;;;;;;;;;;;;;;;6273077;22;19911;-72
2022/09/06 09:08:20;;;;;;;;;;;;;;;;;;6272833;22;19912;-72
2022/09/06 09:10:45;;;;;;;;;;;;;;;;;;6273060;22;19911;-74
2022/09/06 09:13:11;;;;;;;;;;;;;;;;;;6244773;22;20349;-70
2022/09/06 09:15:37;;;;;;;;;;;;;;;;;;6272607;22;19942;-70
2022/09/06 09:18:02;;;;;;;;;;;;;;;;;;6272445;22;19912;-69
2022/09/06 09:20:28;;;;;;;;;;;;;;;;;;6272956;22;19915;-69
2022/09/06 09:22:53;;;;;;;;;;;;;;;;;;6272895;22;19915;-72
2022/09/06 09:25:19;;;;;;;;;;;;;;;;;;6271055;22;19922;-70
2022/09/06 09:27:44;;;;;;;;;;;;;;;;;;6272407;22;19911;-71
2022/09/06 09:30:10;;;;;;;;;;;;;;;;;;6245729;22;20368;-71
2022/09/06 09:32:36;;;;;;;;;;;;;;;;;;6272744;22;20355;-70
2022/09/06 09:35:01;;;;;;;;;;;;;;;;;;6272514;22;19919;-69
2022/09/06 09:37:28;;;;;;;;;;;;;;;;;;6245279;22;19964;-69
2022/09/06 09:39:53;;;;;;;;;;;;;;;;;;6273047;22;20363;-70
2022/09/06 09:42:19;;;;;;;;;;;;;;;;;;6272417;22;19943;-73
2022/09/06 09:44:45;;;;;;;;;;;;;;;;;;6273209;22;19911;-71
2022/09/06 09:47:10;;;;;;;;;;;;;;;;;;6270225;22;20022;-74
2022/09/06 09:49:36;;;;;;;;;;;;;;;;;;6273384;22;19908;-70
2022/09/06 09:52:01;;;;;;;;;;;;;;;;;;6271573;22;19911;-68
2022/09/06 09:54:27;;;;;;;;;;;;;;;;;;6272423;22;19919;-69
2022/09/06 09:56:53;;;;;;;;;;;;;;;;;;6272481;22;20344;-71
2022/09/06 09:59:19;;;;;;;;;;;;;;;;;;6271471;22;20347;-71
2022/09/06 10:01:44;;;;;;;;;;;;;;;;;;6271556;22;19969;-71
2022/09/06 10:04:10;;;;;;;;;;;;;;;;;;6270272;22;19911;-71
2022/09/06 10:06:35;;;;;;;;;;;;;;;;;;6271909;22;20323;-70
2022/09/06 10:09:01;;;;;;;;;;;;;;;;;;6270677;22;19907;-71
2022/09/06 10:11:26;;;;;;;;;;;;;;;;;;6245161;22;19986;-72
2022/09/06 10:13:52;;;;;;;;;;;;;;;;;;6245360;22;19919;-71
2022/09/06 10:16:17;;;;;;;;;;;;;;;;;;6271333;22;19915;-70
2022/09/06 10:18:43;;;;;;;;;;;;;;;;;;6272661;22;20251;-71
2022/09/06 10:21:08;;;;;;;;;;;;;;;;;;6271712;22;20233;-70
2022/09/06 10:23:34;;;;;;;;;;;;;;;;;;6245589;22;20364;-71
2022/09/06 10:25:59;;;;;;;;;;;;;;;;;;6271617;22;19962;-70
2022/09/06 10:28:25;;;;;;;;;;;;;;;;;;6272445;22;19919;-71
2022/09/06 10:30:51;;;;;;;;;;;;;;;;;;6271781;22;19911;-70
2022/09/06 10:33:16;;;;;;;;;;;;;;;;;;6269786;22;20358;-70
2022/09/06 10:35:42;;;;;;;;;;;;;;;;;;6270225;22;20013;-71
2022/09/06 10:38:07;;;;;;;;;;;;;;;;;;6271521;22;19912;-69
2022/09/06 10:40:33;;;;;;;;;;;;;;;;;;6272811;22;20347;-69
2022/09/06 10:43:00;;;;;;;;;;;;;;;;;;6245271;22;19911;-70
2022/09/06 10:45:25;;;;;;;;;;;;;;;;;;6272482;22;20332;-70
2022/09/06 10:47:51;;;;;;;;;;;;;;;;;;6271771;22;19911;-71
2022/09/06 10:50:17;;;;;;;;;;;;;;;;;;6271431;22;19911;-72
2022/09/06 10:52:42;;;;;;;;;;;;;;;;;;6270753;22;19918;-72
2022/09/06 10:55:08;;;;;;;;;;;;;;;;;;6219448;22;20264;-74
2022/09/06 10:57:34;;;;;;;;;;;;;;;;;;6271230;22;19922;-71
2022/09/06 11:00:00;;;;;;;;;;;;;;;;;;6271856;22;19911;-73
2022/09/06 11:02:25;;;;;;;;;;;;;;;;;;6240872;22;19915;-73
2022/09/06 11:04:52;;;;;;;;;;;;;;;;;;6272274;22;19911;-72
2022/09/06 11:07:17;;;;;;;;;;;;;;;;;;6271269;22;20401;-73
2022/09/06 11:09:43;;;;;;;;;;;;;;;;;;6271951;22;19911;-71
2022/09/06 11:12:08;;;;;;;;;;;;;;;;;;6271545;22;20359;-71
2022/09/06 11:14:33;;;;;;;;;;;;;;;;;;6272063;22;19919;-72
2022/09/06 11:16:59;;;;;;;;;;;;;;;;;;6271568;22;19911;-72
2022/09/06 11:19:25;;;;;;;;;;;;;;;;;;6271907;22;19990;-72
2022/09/06 11:21:50;;;;;;;;;;;;;;;;;;6272012;22;19918;-73
2022/09/06 11:24:16;;;;;;;;;;;;;;;;;;6271683;22;19983;-72
2022/09/06 11:26:42;;;;;;;;;;;;;;;;;;6271792;22;20286;-72
2022/09/06 11:29:08;;;;;;;;;;;;;;;;;;6271640;22;20263;-72
2022/09/06 11:31:33;;;;;;;;;;;;;;;;;;6271650;22;19919;-72
2022/09/06 11:33:59;;;;;;;;;;;;;;;;;;6271394;22;19919;-73
2022/09/06 11:36:24;;;;;;;;;;;;;;;;;;6271520;22;20306;-73
2022/09/06 11:38:50;;;;;;;;;;;;;;;;;;6271658;22;20328;-72
2022/09/06 11:41:16;;;;;;;;;;;;;;;;;;6271303;22;19977;-72
2022/09/06 11:43:41;;;;;;;;;;;;;;;;;;6272145;22;19911;-72
2022/09/06 11:46:07;;;;;;;;;;;;;;;;;;6270895;22;20281;-71
2022/09/06 11:48:33;;;;;;;;;;;;;;;;;;6271637;22;19915;-72
2022/09/06 11:50:59;;;;;;;;;;;;;;;;;;6244588;22;19911;-73
2022/09/06 11:53:24;;;;;;;;;;;;;;;;;;6244383;22;20429;-72
2022/09/06 11:55:50;;;;;;;;;;;;;;;;;;6271774;22;19919;-73
2022/09/06 11:58:16;;;;;;;;;;;;;;;;;;6271326;22;19911;-73
2022/09/06 12:00:42;;;;;;;;;;;;;;;;;;6271072;22;19964;-72
2022/09/06 12:03:07;;;;;;;;;;;;;;;;;;6270568;22;19986;-72
2022/09/06 12:05:33;;;;;;;;;;;;;;;;;;6271584;22;19911;-71
2022/09/06 12:07:59;;;;;;;;;;;;;;;;;;6271054;22;19919;-72
2022/09/06 12:10:24;;;;;;;;;;;;;;;;;;6271748;22;19911;-72
2022/09/06 12:12:51;;;;;;;;;;;;;;;;;;6271841;22;20014;-72
2022/09/06 12:15:16;;;;;;;;;;;;;;;;;;6269098;22;20344;-72
2022/09/06 12:17:42;;;;;;;;;;;;;;;;;;6271172;22;19918;-72
2022/09/06 12:20:10;;;;;;;;;;;;;;;;;;6271054;22;19965;-70
2022/09/06 12:22:35;;;;;;;;;;;;;;;;;;6271397;22;19914;-71
2022/09/06 12:25:01;;;;;;;;;;;;;;;;;;6271380;22;19911;-70
2022/09/06 12:27:26;;;;;;;;;;;;;;;;;;6271002;22;19911;-69
2022/09/06 12:29:56;;;;;;;;;;;;;;;;;;6271483;22;19919;-71
2022/09/06 12:32:22;;;;;;;;;;;;;;;;;;6244656;22;20402;-70
2022/09/06 12:34:48;;;;;;;;;;;;;;;;;;6271629;22;19919;-70
2022/09/06 12:37:13;;;;;;;;;;;;;;;;;;6270647;22;19937;-71
2022/09/06 12:39:39;;;;;;;;;;;;;;;;;;6271145;22;20328;-74
2022/09/06 12:42:05;;;;;;;;;;;;;;;;;;6270606;22;19962;-71
2022/09/06 12:44:30;;;;;;;;;;;;;;;;;;6271955;22;19919;-71
2022/09/06 12:46:56;;;;;;;;;;;;;;;;;;6271258;22;19911;-71
2022/09/06 12:49:22;;;;;;;;;;;;;;;;;;6270659;22;19912;-71
2022/09/06 12:51:48;;;;;;;;;;;;;;;;;;6271224;22;19919;-70
2022/09/06 12:54:14;;;;;;;;;;;;;;;;;;6270881;22;19920;-70
2022/09/06 12:56:39;;;;;;;;;;;;;;;;;;6271219;22;19911;-71
2022/09/06 12:59:05;;;;;;;;;;;;;;;;;;6270927;22;19964;-69
2022/09/06 13:01:31;;;;;;;;;;;;;;;;;;6270952;22;19911;-69
2022/09/06 13:03:57;;;;;;;;;;;;;;;;;;6270957;22;20595;-70
2022/09/06 13:06:22;;;;;;;;;;;;;;;;;;6271166;22;19938;-72
2022/09/06 13:08:48;;;;;;;;;;;;;;;;;;6271532;22;19915;-71
2022/09/06 13:11:14;;;;;;;;;;;;;;;;;;6270840;22;19916;-72
2022/09/06 13:13:39;;;;;;;;;;;;;;;;;;6270918;22;19915;-73
2022/09/06 13:16:05;;;;;;;;;;;;;;;;;;6269477;22;20343;-71
2022/09/06 13:18:30;;;;;;;;;;;;;;;;;;6270908;22;19914;-70
2022/09/06 13:20:57;;;;;;;;;;;;;;;;;;6270758;22;19915;-70
2022/09/06 13:23:22;;;;;;;;;;;;;;;;;;6271029;22;19937;-70
2022/09/06 13:25:48;;;;;;;;;;;;;;;;;;6245956;22;19911;-72
2022/09/06 13:28:13;;;;;;;;;;;;;;;;;;6246152;22;19922;-71
2022/09/06 13:30:44;;;;;;;;;;;;;;;;;;6273199;22;19977;-70
2022/09/06 13:33:09;;;;;;;;;;;;;;;;;;6272079;22;20005;-71
2022/09/06 13:35:35;;;;;;;;;;;;;;;;;;6272283;22;19919;-71
2022/09/06 13:38:01;;;;;;;;;;;;;;;;;;6272185;22;19911;-71
2022/09/06 13:40:27;;;;;;;;;;;;;;;;;;6272325;22;20419;-71
2022/09/06 13:42:53;;;;;;;;;;;;;;;;;;6271645;22;20266;-72
2022/09/06 13:45:18;;;;;;;;;;;;;;;;;;6269973;22;20420;-70
2022/09/06 13:47:44;;;;;;;;;;;;;;;;;;6243799;22;19930;-72
2022/09/06 13:50:09;;;;;;;;;;;;;;;;;;6271792;22;19912;-72
2022/09/06 13:52:35;;;;;;;;;;;;;;;;;;6272454;22;20248;-72
2022/09/06 13:55:00;;;;;;;;;;;;;;;;;;6272444;22;19965;-70
2022/09/06 13:57:26;;;;;;;;;;;;;;;;;;6272267;22;19957;-72
2022/09/06 13:59:51;;;;;;;;;;;;;;;;;;6272274;22;19915;-72
2022/09/06 14:02:19;;;;;;;;;;;;;;;;;;6271898;22;19912;-70
2022/09/06 14:04:46;;;;;;;;;;;;;;;;;;6271922;22;19919;-71
2022/09/06 14:07:11;;;;;;;;;;;;;;;;;;6219136;22;19970;-71
2022/09/06 14:09:37;;;;;;;;;;;;;;;;;;6272152;22;19998;-71
2022/09/06 14:14:56;;;;;;;;;;;;;;;;;;6272181;22;19926;-71
2022/09/06 14:17:22;;;;;;;;;;;;;;;;;;6272260;22;19911;-70
2022/09/06 14:19:48;;;;;;;;;;;;;;;;;;6272334;22;19918;-71
2022/09/06 14:22:14;;;;;;;;;;;;;;;;;;6271864;22;19915;-71
2022/09/06 14:24:40;;;;;;;;;;;;;;;;;;6272537;22;19990;-71
2022/09/06 14:27:07;;;;;;;;;;;;;;;;;;6272309;22;19918;-71
2022/09/06 14:29:34;;;;;;;;;;;;;;;;;;6245035;22;19919;-71
2022/09/06 14:31:59;;;;;;;;;;;;;;;;;;6272201;22;19946;-71
2022/09/06 14:34:25;;;;;;;;;;;;;;;;;;6245244;22;19923;-71
2022/09/06 14:36:51;;;;;;;;;;;;;;;;;;6272080;22;19918;-71
2022/09/06 14:39:16;;;;;;;;;;;;;;;;;;6244913;22;19994;-71
2022/09/06 14:41:42;;;;;;;;;;;;;;;;;;6272213;22;20339;-71
2022/09/06 14:44:08;;;;;;;;;;;;;;;;;;6271392;22;19926;-72
2022/09/06 14:46:33;;;;;;;;;;;;;;;;;;6271579;22;19918;-71
2022/09/06 14:48:59;;;;;;;;;;;;;;;;;;6272145;22;19965;-72
2022/09/06 14:51:25;;;;;;;;;;;;;;;;;;6272956;22;19957;-69
2022/09/06 14:53:51;;;;;;;;;;;;;;;;;;6272858;22;19911;-71
2022/09/06 14:56:17;;;;;;;;;;;;;;;;;;6245688;22;19915;-71
2022/09/06 14:58:42;;;;;;;;;;;;;;;;;;6271025;22;19911;-71
2022/09/06 15:01:08;;;;;;;;;;;;;;;;;;6245813;22;19993;-71
2022/09/06 15:03:34;;;;;;;;;;;;;;;;;;6272715;22;20288;-74
2022/09/06 15:06:01;;;;;;;;;;;;;;;;;;6272047;22;19912;-71
2022/09/06 15:08:26;;;;;;;;;;;;;;;;;;6273197;22;19914;-71
2022/09/06 15:10:52;;;;;;;;;;;;;;;;;;6274598;22;20264;-72
2022/09/06 15:13:18;;;;;;;;;;;;;;;;;;6273415;22;19918;-71
2022/09/06 15:15:43;;;;;;;;;;;;;;;;;;6273713;22;19919;-72
2022/09/06 15:18:09;;;;;;;;;;;;;;;;;;6245456;22;19945;-74
2022/09/06 15:20:35;;;;;;;;;;;;;;;;;;6272321;22;19911;-74
2022/09/06 15:23:02;;;;;;;;;;;;;;;;;;6271924;22;20395;-74
2022/09/06 15:25:30;;;;;;;;;;;;;;;;;;6271770;22;19911;-74
2022/09/06 15:27:56;;;;;;;;;;;;;;;;;;6271986;22;19945;-73
2022/09/06 15:30:22;;;;;;;;;;;;;;;;;;6273065;22;19931;-73
2022/09/06 15:32:47;;;;;;;;;;;;;;;;;;6271474;22;19938;-72
2022/09/06 15:35:14;;;;;;;;;;;;;;;;;;6271238;22;20260;-70
2022/09/06 15:37:40;;;;;;;;;;;;;;;;;;6271638;22;20014;-71
2022/09/06 15:40:06;;;;;;;;;;;;;;;;;;6272048;22;20367;-71
2022/09/06 15:42:31;;;;;;;;;;;;;;;;;;6271723;22;20006;-73
2022/09/06 15:44:57;;;;;;;;;;;;;;;;;;6244682;22;20360;-72
2022/09/06 15:47:22;;;;;;;;;;;;;;;;;;6271537;22;20336;-73
2022/09/06 15:49:48;;;;;;;;;;;;;;;;;;6271944;22;19995;-74
2022/09/06 15:52:14;;;;;;;;;;;;;;;;;;6244397;22;19915;-73
2022/09/06 15:57:23;;;;;;;;;;;;;;;;;;6271694;22;20447;-73
2022/09/06 15:59:49;;;;;;;;;;;;;;;;;;6272212;22;19946;-73
2022/09/06 16:02:15;;;;;;;;;;;;;;;;;;6270993;22;20236;-70
2022/09/06 16:04:41;;;;;;;;;;;;;;;;;;6271664;22;19918;-70
2022/09/06 16:07:06;;;;;;;;;;;;;;;;;;6268845;22;19911;-70
2022/09/06 16:09:32;;;;;;;;;;;;;;;;;;6269346;22;19937;-71
2022/09/06 16:11:58;;;;;;;;;;;;;;;;;;6243448;22;19949;-70
2022/09/06 16:14:24;;;;;;;;;;;;;;;;;;6270787;22;19930;-71
2022/09/06 16:16:51;;;;;;;;;;;;;;;;;;6271051;22;19918;-71
2022/09/06 16:19:16;;;;;;;;;;;;;;;;;;6270432;22;19990;-71
2022/09/06 16:21:42;;;;;;;;;;;;;;;;;;6271548;22;19935;-71
2022/09/06 16:24:07;;;;;;;;;;;;;;;;;;6270950;22;19911;-70
2022/09/06 16:26:33;;;;;;;;;;;;;;;;;;6270330;22;19912;-71
2022/09/06 16:28:59;;;;;;;;;;;;;;;;;;6268862;22;19926;-71
2022/09/06 16:31:25;;;;;;;;;;;;;;;;;;6269708;22;20002;-71
2022/09/06 16:33:52;;;;;;;;;;;;;;;;;;6270398;22;20363;-70
2022/09/06 16:36:18;;;;;;;;;;;;;;;;;;6271002;22;19916;-70
2022/09/06 16:38:43;;;;;;;;;;;;;;;;;;6243671;22;19918;-70
2022/09/06 16:41:09;;;;;;;;;;;;;;;;;;6269151;22;20303;-71